sensor_id;sensor_type;location;lat;lon;timestamp;temperature;humidity
7686;DHT22;3885;51.474;-2.576;2023-02-17T00:01:31;10.40;99.90
7686;DHT22;3885;51.474;-2.576;2023-02-17T00:03:58;10.40;99.90
7686;DHT22;3885;51.474;-2.576;2023-02-17T00:06:29;10.40;99.90
7686;DHT22;3885;51.474;-2.576;2023-02-17T00:08:57;10.40;99.90
7686;DHT22;3885;51.474;-2.576;2023-02-17T00:11:24;10.40;99.90
7686;DHT22;3885;51.474;-2.576;2023-02-17T00:13:51;10.40;99.90
7686;DHT22;3885;51.474;-2.576;2023-02-17T00:16:20;10.40;99.90
7686;DHT22;3885;51.474;-2.576;2023-02-17T00:18:51;10.40;99.90
7686;DHT22;3885;51.474;-2.576;2023-02-17T00:21:21;10.40;99.90
7686;DHT22;3885;51.474;-2.576;2023-02-17T00:23:50;10.40;99.90
7686;DHT22;3885;51.474;-2.576;2023-02-17T00:26:18;10.40;99.90
7686;DHT22;3885;51.474;-2.576;2023-02-17T00:28:45;10.40;99.90
7686;DHT22;3885;51.474;-2.576;2023-02-17T00:31:16;10.40;99.90
7686;DHT22;3885;51.474;-2.576;2023-02-17T00:36:12;10.40;99.90
7686;DHT22;3885;51.474;-2.576;2023-02-17T00:38:39;10.40;99.90
7686;DHT22;3885;51.474;-2.576;2023-02-17T00:41:08;10.40;99.90
7686;DHT22;3885;51.474;-2.576;2023-02-17T00:43:35;10.40;99.90
7686;DHT22;3885;51.474;-2.576;2023-02-17T00:46:01;10.40;99.90
7686;DHT22;3885;51.474;-2.576;2023-02-17T00:48:29;10.40;99.90
7686;DHT22;3885;51.474;-2.576;2023-02-17T00:50:56;10.40;99.90
7686;DHT22;3885;51.474;-2.576;2023-02-17T00:53:23;10.40;99.90
7686;DHT22;3885;51.474;-2.576;2023-02-17T00:55:50;10.40;99.90
7686;DHT22;3885;51.474;-2.576;2023-02-17T00:58:18;10.40;99.90
7686;DHT22;3885;51.474;-2.576;2023-02-17T01:00:45;10.30;99.90
7686;DHT22;3885;51.474;-2.576;2023-02-17T01:03:12;10.30;99.90
7686;DHT22;3885;51.474;-2.576;2023-02-17T01:05:40;10.30;99.90
7686;DHT22;3885;51.474;-2.576;2023-02-17T01:08:08;10.30;99.90
7686;DHT22;3885;51.474;-2.576;2023-02-17T01:13:03;10.30;99.90
7686;DHT22;3885;51.474;-2.576;2023-02-17T01:15:36;10.30;99.90
7686;DHT22;3885;51.474;-2.576;2023-02-17T01:18:03;10.30;99.90
7686;DHT22;3885;51.474;-2.576;2023-02-17T01:20:33;10.30;99.90
7686;DHT22;3885;51.474;-2.576;2023-02-17T01:25:27;10.30;99.90
7686;DHT22;3885;51.474;-2.576;2023-02-17T01:30:21;10.30;99.90
7686;DHT22;3885;51.474;-2.576;2023-02-17T01:32:50;10.30;99.90
7686;DHT22;3885;51.474;-2.576;2023-02-17T01:35:17;10.30;99.90
7686;DHT22;3885;51.474;-2.576;2023-02-17T01:37:44;10.30;99.90
7686;DHT22;3885;51.474;-2.576;2023-02-17T01:40:12;10.30;99.90
7686;DHT22;3885;51.474;-2.576;2023-02-17T01:42:39;10.30;99.90
7686;DHT22;3885;51.474;-2.576;2023-02-17T01:45:35;10.20;99.90
7686;DHT22;3885;51.474;-2.576;2023-02-17T01:48:07;10.20;99.90
7686;DHT22;3885;51.474;-2.576;2023-02-17T01:50:38;10.20;99.90
7686;DHT22;3885;51.474;-2.576;2023-02-17T01:53:06;10.20;99.90
7686;DHT22;3885;51.474;-2.576;2023-02-17T01:55:35;10.20;99.90
7686;DHT22;3885;51.474;-2.576;2023-02-17T01:58:03;10.20;99.90
7686;DHT22;3885;51.474;-2.576;2023-02-17T02:00:31;10.20;99.90
7686;DHT22;3885;51.474;-2.576;2023-02-17T02:03:00;10.10;99.90
7686;DHT22;3885;51.474;-2.576;2023-02-17T02:05:29;10.10;99.90
7686;DHT22;3885;51.474;-2.576;2023-02-17T02:07:56;10.10;99.90
7686;DHT22;3885;51.474;-2.576;2023-02-17T02:10:23;10.10;99.90
7686;DHT22;3885;51.474;-2.576;2023-02-17T02:12:50;10.10;99.90
7686;DHT22;3885;51.474;-2.576;2023-02-17T02:15:19;10.10;99.90
7686;DHT22;3885;51.474;-2.576;2023-02-17T02:18:00;10.10;99.90
7686;DHT22;3885;51.474;-2.576;2023-02-17T02:23:20;10.00;99.90
7686;DHT22;3885;51.474;-2.576;2023-02-17T02:26:19;10.00;99.90
7686;DHT22;3885;51.474;-2.576;2023-02-17T02:29:03;9.90;99.90
7686;DHT22;3885;51.474;-2.576;2023-02-17T02:31:42;9.90;99.90
7686;DHT22;3885;51.474;-2.576;2023-02-17T02:34:15;10.00;99.90
7686;DHT22;3885;51.474;-2.576;2023-02-17T02:39:16;9.90;99.90
7686;DHT22;3885;51.474;-2.576;2023-02-17T02:41:44;9.90;99.90
7686;DHT22;3885;51.474;-2.576;2023-02-17T02:44:16;9.90;99.90
7686;DHT22;3885;51.474;-2.576;2023-02-17T02:46:43;9.90;99.90
7686;DHT22;3885;51.474;-2.576;2023-02-17T02:49:12;9.90;99.90
7686;DHT22;3885;51.474;-2.576;2023-02-17T02:51:47;9.90;99.90
7686;DHT22;3885;51.474;-2.576;2023-02-17T02:57:02;9.90;99.90
7686;DHT22;3885;51.474;-2.576;2023-02-17T02:59:39;9.90;99.90
7686;DHT22;3885;51.474;-2.576;2023-02-17T03:04:45;9.90;99.90
7686;DHT22;3885;51.474;-2.576;2023-02-17T03:09:48;9.90;99.90
7686;DHT22;3885;51.474;-2.576;2023-02-17T03:14:42;9.90;99.90
7686;DHT22;3885;51.474;-2.576;2023-02-17T03:17:09;9.90;99.90
7686;DHT22;3885;51.474;-2.576;2023-02-17T03:19:36;9.90;99.90
7686;DHT22;3885;51.474;-2.576;2023-02-17T03:22:10;10.00;99.90
7686;DHT22;3885;51.474;-2.576;2023-02-17T03:24:39;10.00;99.90
7686;DHT22;3885;51.474;-2.576;2023-02-17T03:27:06;10.00;99.90
7686;DHT22;3885;51.474;-2.576;2023-02-17T03:29:33;10.00;99.90
7686;DHT22;3885;51.474;-2.576;2023-02-17T03:32:00;10.00;99.90
7686;DHT22;3885;51.474;-2.576;2023-02-17T03:34:27;10.00;99.90
7686;DHT22;3885;51.474;-2.576;2023-02-17T03:36:54;9.90;99.90
7686;DHT22;3885;51.474;-2.576;2023-02-17T03:39:23;9.90;99.90
7686;DHT22;3885;51.474;-2.576;2023-02-17T03:41:50;9.90;99.90
7686;DHT22;3885;51.474;-2.576;2023-02-17T03:46:44;9.90;99.90
7686;DHT22;3885;51.474;-2.576;2023-02-17T03:51:38;10.00;99.90
7686;DHT22;3885;51.474;-2.576;2023-02-17T03:54:05;10.00;99.90
7686;DHT22;3885;51.474;-2.576;2023-02-17T03:56:34;10.00;99.90
7686;DHT22;3885;51.474;-2.576;2023-02-17T03:59:01;10.00;99.90
7686;DHT22;3885;51.474;-2.576;2023-02-17T04:01:28;10.00;99.90
7686;DHT22;3885;51.474;-2.576;2023-02-17T04:03:55;10.00;99.90
7686;DHT22;3885;51.474;-2.576;2023-02-17T04:06:22;10.00;99.90
7686;DHT22;3885;51.474;-2.576;2023-02-17T04:11:16;10.00;99.90
7686;DHT22;3885;51.474;-2.576;2023-02-17T04:18:39;10.10;99.90
7686;DHT22;3885;51.474;-2.576;2023-02-17T04:21:06;10.10;99.90
7686;DHT22;3885;51.474;-2.576;2023-02-17T04:23:33;10.10;99.90
7686;DHT22;3885;51.474;-2.576;2023-02-17T04:26:01;10.10;99.90
7686;DHT22;3885;51.474;-2.576;2023-02-17T04:30:57;10.10;99.90
7686;DHT22;3885;51.474;-2.576;2023-02-17T04:33:24;10.10;99.90
7686;DHT22;3885;51.474;-2.576;2023-02-17T04:35:51;10.10;99.90
7686;DHT22;3885;51.474;-2.576;2023-02-17T04:38:24;10.10;99.90
7686;DHT22;3885;51.474;-2.576;2023-02-17T04:40:53;10.10;99.90
7686;DHT22;3885;51.474;-2.576;2023-02-17T04:43:20;10.10;99.90
7686;DHT22;3885;51.474;-2.576;2023-02-17T04:45:47;10.10;99.90
7686;DHT22;3885;51.474;-2.576;2023-02-17T04:48:16;10.10;99.90
7686;DHT22;3885;51.474;-2.576;2023-02-17T04:50:43;10.20;99.90
7686;DHT22;3885;51.474;-2.576;2023-02-17T04:53:11;10.10;99.90
7686;DHT22;3885;51.474;-2.576;2023-02-17T04:55:38;10.10;99.90
7686;DHT22;3885;51.474;-2.576;2023-02-17T04:58:05;10.20;99.90
7686;DHT22;3885;51.474;-2.576;2023-02-17T05:03:00;10.20;99.90
7686;DHT22;3885;51.474;-2.576;2023-02-17T05:05:28;10.20;99.90
7686;DHT22;3885;51.474;-2.576;2023-02-17T05:07:55;10.30;99.90
7686;DHT22;3885;51.474;-2.576;2023-02-17T05:10:22;10.30;99.90
7686;DHT22;3885;51.474;-2.576;2023-02-17T05:12:49;10.30;99.90
7686;DHT22;3885;51.474;-2.576;2023-02-17T05:15:17;10.30;99.90
7686;DHT22;3885;51.474;-2.576;2023-02-17T05:17:44;10.30;99.90
7686;DHT22;3885;51.474;-2.576;2023-02-17T05:20:11;10.40;99.90
7686;DHT22;3885;51.474;-2.576;2023-02-17T05:22:39;10.40;99.90
7686;DHT22;3885;51.474;-2.576;2023-02-17T05:27:34;10.40;99.90
7686;DHT22;3885;51.474;-2.576;2023-02-17T05:30:01;10.40;99.90
7686;DHT22;3885;51.474;-2.576;2023-02-17T05:32:28;10.40;99.90
7686;DHT22;3885;51.474;-2.576;2023-02-17T05:34:55;10.40;99.90
7686;DHT22;3885;51.474;-2.576;2023-02-17T05:37:22;10.40;99.90
7686;DHT22;3885;51.474;-2.576;2023-02-17T05:39:50;10.50;99.90
7686;DHT22;3885;51.474;-2.576;2023-02-17T05:44:44;10.50;99.90
7686;DHT22;3885;51.474;-2.576;2023-02-17T05:49:38;10.60;99.90
7686;DHT22;3885;51.474;-2.576;2023-02-17T05:52:05;10.60;99.90
7686;DHT22;3885;51.474;-2.576;2023-02-17T05:54:32;10.60;99.90
7686;DHT22;3885;51.474;-2.576;2023-02-17T05:59:28;10.60;99.90
7686;DHT22;3885;51.474;-2.576;2023-02-17T06:01:55;10.60;99.90
7686;DHT22;3885;51.474;-2.576;2023-02-17T06:04:22;10.60;99.90
7686;DHT22;3885;51.474;-2.576;2023-02-17T06:09:17;10.50;99.90
7686;DHT22;3885;51.474;-2.576;2023-02-17T06:11:43;10.60;99.90
7686;DHT22;3885;51.474;-2.576;2023-02-17T06:14:12;10.60;99.90
7686;DHT22;3885;51.474;-2.576;2023-02-17T06:21:33;10.60;99.90
7686;DHT22;3885;51.474;-2.576;2023-02-17T06:26:27;10.60;99.90
7686;DHT22;3885;51.474;-2.576;2023-02-17T06:28:54;10.50;99.90
7686;DHT22;3885;51.474;-2.576;2023-02-17T06:33:49;10.50;99.90
7686;DHT22;3885;51.474;-2.576;2023-02-17T06:36:16;10.50;99.90
7686;DHT22;3885;51.474;-2.576;2023-02-17T06:38:43;10.50;99.90
7686;DHT22;3885;51.474;-2.576;2023-02-17T06:41:10;10.50;99.90
7686;DHT22;3885;51.474;-2.576;2023-02-17T06:43:37;10.50;99.90
7686;DHT22;3885;51.474;-2.576;2023-02-17T06:46:04;10.50;99.90
7686;DHT22;3885;51.474;-2.576;2023-02-17T06:48:32;10.50;99.90
7686;DHT22;3885;51.474;-2.576;2023-02-17T06:50:59;10.50;99.90
7686;DHT22;3885;51.474;-2.576;2023-02-17T06:55:53;10.50;99.90
7686;DHT22;3885;51.474;-2.576;2023-02-17T06:58:20;10.50;99.90
7686;DHT22;3885;51.474;-2.576;2023-02-17T07:00:47;10.50;99.90
7686;DHT22;3885;51.474;-2.576;2023-02-17T07:03:15;10.50;99.90
7686;DHT22;3885;51.474;-2.576;2023-02-17T07:05:44;10.50;99.90
7686;DHT22;3885;51.474;-2.576;2023-02-17T07:08:10;10.50;99.90
7686;DHT22;3885;51.474;-2.576;2023-02-17T07:10:37;10.50;99.90
7686;DHT22;3885;51.474;-2.576;2023-02-17T07:13:04;10.50;99.90
7686;DHT22;3885;51.474;-2.576;2023-02-17T07:15:31;10.50;99.90
7686;DHT22;3885;51.474;-2.576;2023-02-17T07:17:59;10.50;99.90
7686;DHT22;3885;51.474;-2.576;2023-02-17T07:22:55;10.50;99.90
7686;DHT22;3885;51.474;-2.576;2023-02-17T07:25:21;10.50;99.90
7686;DHT22;3885;51.474;-2.576;2023-02-17T07:27:48;10.50;99.90
7686;DHT22;3885;51.474;-2.576;2023-02-17T07:30:15;10.50;99.90
7686;DHT22;3885;51.474;-2.576;2023-02-17T07:32:43;10.50;99.90
7686;DHT22;3885;51.474;-2.576;2023-02-17T07:35:10;10.50;99.90
7686;DHT22;3885;51.474;-2.576;2023-02-17T07:37:37;10.40;99.90
7686;DHT22;3885;51.474;-2.576;2023-02-17T07:40:06;10.50;99.90
7686;DHT22;3885;51.474;-2.576;2023-02-17T07:42:33;10.50;99.90
7686;DHT22;3885;51.474;-2.576;2023-02-17T07:45:00;10.50;99.90
7686;DHT22;3885;51.474;-2.576;2023-02-17T07:47:27;10.50;99.90
7686;DHT22;3885;51.474;-2.576;2023-02-17T07:52:21;10.50;99.90
7686;DHT22;3885;51.474;-2.576;2023-02-17T07:54:48;10.50;99.90
7686;DHT22;3885;51.474;-2.576;2023-02-17T07:57:16;10.50;99.90
7686;DHT22;3885;51.474;-2.576;2023-02-17T07:59:45;10.50;99.90
7686;DHT22;3885;51.474;-2.576;2023-02-17T08:02:12;10.60;99.90
7686;DHT22;3885;51.474;-2.576;2023-02-17T08:04:38;10.60;99.90
7686;DHT22;3885;51.474;-2.576;2023-02-17T08:07:05;10.60;99.90
7686;DHT22;3885;51.474;-2.576;2023-02-17T08:09:32;10.50;99.90
7686;DHT22;3885;51.474;-2.576;2023-02-17T08:12:19;10.50;99.90
7686;DHT22;3885;51.474;-2.576;2023-02-17T08:15:05;10.50;99.90
7686;DHT22;3885;51.474;-2.576;2023-02-17T08:17:33;10.60;99.90
7686;DHT22;3885;51.474;-2.576;2023-02-17T08:20:00;10.60;99.90
7686;DHT22;3885;51.474;-2.576;2023-02-17T08:22:27;10.60;99.90
7686;DHT22;3885;51.474;-2.576;2023-02-17T08:24:54;10.60;99.90
7686;DHT22;3885;51.474;-2.576;2023-02-17T08:27:22;10.60;99.90
7686;DHT22;3885;51.474;-2.576;2023-02-17T08:29:49;10.60;99.90
7686;DHT22;3885;51.474;-2.576;2023-02-17T08:32:16;10.60;99.90
7686;DHT22;3885;51.474;-2.576;2023-02-17T08:34:44;10.60;99.90
7686;DHT22;3885;51.474;-2.576;2023-02-17T08:37:11;10.60;99.90
7686;DHT22;3885;51.474;-2.576;2023-02-17T08:39:38;10.60;99.90
7686;DHT22;3885;51.474;-2.576;2023-02-17T08:47:03;10.60;99.90
7686;DHT22;3885;51.474;-2.576;2023-02-17T08:49:30;10.60;99.90
7686;DHT22;3885;51.474;-2.576;2023-02-17T08:51:58;10.70;99.90
7686;DHT22;3885;51.474;-2.576;2023-02-17T08:54:25;10.70;99.90
7686;DHT22;3885;51.474;-2.576;2023-02-17T08:56:52;10.80;99.90
7686;DHT22;3885;51.474;-2.576;2023-02-17T08:59:19;10.80;99.90
7686;DHT22;3885;51.474;-2.576;2023-02-17T09:01:47;10.90;99.90
7686;DHT22;3885;51.474;-2.576;2023-02-17T09:04:15;10.90;99.90
7686;DHT22;3885;51.474;-2.576;2023-02-17T09:06:45;10.90;99.90
7686;DHT22;3885;51.474;-2.576;2023-02-17T09:11:41;11.00;99.90
7686;DHT22;3885;51.474;-2.576;2023-02-17T09:14:09;11.10;99.90
7686;DHT22;3885;51.474;-2.576;2023-02-17T09:16:36;11.10;99.90
7686;DHT22;3885;51.474;-2.576;2023-02-17T09:19:04;11.10;99.90
7686;DHT22;3885;51.474;-2.576;2023-02-17T09:21:32;11.20;99.90
7686;DHT22;3885;51.474;-2.576;2023-02-17T09:23:59;11.20;99.90
7686;DHT22;3885;51.474;-2.576;2023-02-17T09:26:26;11.20;99.90
7686;DHT22;3885;51.474;-2.576;2023-02-17T09:28:53;11.30;99.90
7686;DHT22;3885;51.474;-2.576;2023-02-17T09:31:21;11.30;99.90
7686;DHT22;3885;51.474;-2.576;2023-02-17T09:33:50;11.40;99.90
7686;DHT22;3885;51.474;-2.576;2023-02-17T09:36:21;11.40;99.90
7686;DHT22;3885;51.474;-2.576;2023-02-17T09:38:49;11.50;99.90
7686;DHT22;3885;51.474;-2.576;2023-02-17T09:43:45;11.60;99.90
7686;DHT22;3885;51.474;-2.576;2023-02-17T09:46:15;11.60;99.90
7686;DHT22;3885;51.474;-2.576;2023-02-17T09:48:46;11.70;99.90
7686;DHT22;3885;51.474;-2.576;2023-02-17T09:51:20;11.70;99.90
7686;DHT22;3885;51.474;-2.576;2023-02-17T09:53:52;11.70;99.90
7686;DHT22;3885;51.474;-2.576;2023-02-17T09:56:24;11.70;99.90
7686;DHT22;3885;51.474;-2.576;2023-02-17T09:58:57;11.70;99.90
7686;DHT22;3885;51.474;-2.576;2023-02-17T10:01:28;11.70;99.90
7686;DHT22;3885;51.474;-2.576;2023-02-17T10:06:30;11.70;99.90
7686;DHT22;3885;51.474;-2.576;2023-02-17T10:11:31;11.80;99.90
7686;DHT22;3885;51.474;-2.576;2023-02-17T10:14:15;11.80;99.90
7686;DHT22;3885;51.474;-2.576;2023-02-17T10:16:47;11.80;99.90
7686;DHT22;3885;51.474;-2.576;2023-02-17T10:21:49;11.80;99.90
7686;DHT22;3885;51.474;-2.576;2023-02-17T10:24:16;11.80;99.90
7686;DHT22;3885;51.474;-2.576;2023-02-17T10:29:27;11.90;99.90
7686;DHT22;3885;51.474;-2.576;2023-02-17T10:34:35;12.00;99.90
7686;DHT22;3885;51.474;-2.576;2023-02-17T10:37:09;12.00;99.90
7686;DHT22;3885;51.474;-2.576;2023-02-17T10:39:45;12.10;99.90
7686;DHT22;3885;51.474;-2.576;2023-02-17T10:42:17;12.20;99.90
7686;DHT22;3885;51.474;-2.576;2023-02-17T10:44:45;12.30;99.90
7686;DHT22;3885;51.474;-2.576;2023-02-17T10:47:12;12.20;99.90
7686;DHT22;3885;51.474;-2.576;2023-02-17T10:49:43;12.20;99.90
7686;DHT22;3885;51.474;-2.576;2023-02-17T10:52:15;12.20;99.90
7686;DHT22;3885;51.474;-2.576;2023-02-17T10:57:14;12.40;99.90
7686;DHT22;3885;51.474;-2.576;2023-02-17T10:59:44;12.50;99.90
7686;DHT22;3885;51.474;-2.576;2023-02-17T11:02:16;12.50;99.90
7686;DHT22;3885;51.474;-2.576;2023-02-17T11:04:45;12.60;99.90
7686;DHT22;3885;51.474;-2.576;2023-02-17T11:07:15;12.70;99.90
7686;DHT22;3885;51.474;-2.576;2023-02-17T11:12:17;13.00;99.90
7686;DHT22;3885;51.474;-2.576;2023-02-17T11:14:48;13.20;99.90
7686;DHT22;3885;51.474;-2.576;2023-02-17T11:22:34;13.20;99.90
7686;DHT22;3885;51.474;-2.576;2023-02-17T11:25:06;13.20;99.90
7686;DHT22;3885;51.474;-2.576;2023-02-17T11:30:06;13.00;99.90
7686;DHT22;3885;51.474;-2.576;2023-02-17T11:32:34;12.90;99.90
7686;DHT22;3885;51.474;-2.576;2023-02-17T11:35:01;13.00;99.90
7686;DHT22;3885;51.474;-2.576;2023-02-17T11:37:36;13.00;99.90
7686;DHT22;3885;51.474;-2.576;2023-02-17T11:40:22;13.00;99.90
7686;DHT22;3885;51.474;-2.576;2023-02-17T11:42:55;13.20;99.90
7686;DHT22;3885;51.474;-2.576;2023-02-17T11:50:42;13.30;99.90
7686;DHT22;3885;51.474;-2.576;2023-02-17T11:53:22;13.40;99.90
7686;DHT22;3885;51.474;-2.576;2023-02-17T11:58:32;13.20;99.90
7686;DHT22;3885;51.474;-2.576;2023-02-17T12:03:52;13.10;99.90
7686;DHT22;3885;51.474;-2.576;2023-02-17T12:06:35;13.20;99.90
7686;DHT22;3885;51.474;-2.576;2023-02-17T12:11:55;13.20;99.90
7686;DHT22;3885;51.474;-2.576;2023-02-17T12:14:48;13.10;99.90
7686;DHT22;3885;51.474;-2.576;2023-02-17T12:17:29;13.10;99.90
7686;DHT22;3885;51.474;-2.576;2023-02-17T12:20:27;13.00;99.90
7686;DHT22;3885;51.474;-2.576;2023-02-17T12:23:09;13.00;99.90
7686;DHT22;3885;51.474;-2.576;2023-02-17T12:25:50;12.90;99.90
7686;DHT22;3885;51.474;-2.576;2023-02-17T12:28:54;13.00;99.90
7686;DHT22;3885;51.474;-2.576;2023-02-17T12:31:54;13.00;99.90
7686;DHT22;3885;51.474;-2.576;2023-02-17T12:34:34;12.90;99.90
7686;DHT22;3885;51.474;-2.576;2023-02-17T12:37:14;12.90;99.90
7686;DHT22;3885;51.474;-2.576;2023-02-17T12:39:52;12.90;99.90
7686;DHT22;3885;51.474;-2.576;2023-02-17T12:45:16;12.90;99.90
7686;DHT22;3885;51.474;-2.576;2023-02-17T12:47:52;12.90;99.90
7686;DHT22;3885;51.474;-2.576;2023-02-17T12:50:37;12.80;99.90
7686;DHT22;3885;51.474;-2.576;2023-02-17T12:53:14;12.90;99.90
7686;DHT22;3885;51.474;-2.576;2023-02-17T12:55:53;12.80;99.90
7686;DHT22;3885;51.474;-2.576;2023-02-17T12:58:25;12.70;99.90
7686;DHT22;3885;51.474;-2.576;2023-02-17T13:01:13;12.70;99.90
7686;DHT22;3885;51.474;-2.576;2023-02-17T13:03:43;12.70;99.90
7686;DHT22;3885;51.474;-2.576;2023-02-17T13:06:23;12.70;99.90
7686;DHT22;3885;51.474;-2.576;2023-02-17T13:08:54;12.70;99.90
7686;DHT22;3885;51.474;-2.576;2023-02-17T13:13:55;12.70;99.90
7686;DHT22;3885;51.474;-2.576;2023-02-17T13:16:22;12.70;99.90
7686;DHT22;3885;51.474;-2.576;2023-02-17T13:18:51;12.70;99.90
7686;DHT22;3885;51.474;-2.576;2023-02-17T13:21:26;12.60;99.90
7686;DHT22;3885;51.474;-2.576;2023-02-17T13:23:59;12.50;99.90
7686;DHT22;3885;51.474;-2.576;2023-02-17T13:26:29;12.50;99.90
7686;DHT22;3885;51.474;-2.576;2023-02-17T13:29:19;12.50;99.90
7686;DHT22;3885;51.474;-2.576;2023-02-17T13:31:50;12.40;99.90
7686;DHT22;3885;51.474;-2.576;2023-02-17T13:34:30;12.40;99.90
7686;DHT22;3885;51.474;-2.576;2023-02-17T13:36:59;12.30;99.90
7686;DHT22;3885;51.474;-2.576;2023-02-17T13:39:34;12.40;99.90
7686;DHT22;3885;51.474;-2.576;2023-02-17T13:42:01;12.40;99.90
7686;DHT22;3885;51.474;-2.576;2023-02-17T13:44:32;12.40;99.90
7686;DHT22;3885;51.474;-2.576;2023-02-17T13:47:01;12.50;99.90
7686;DHT22;3885;51.474;-2.576;2023-02-17T13:49:30;12.50;99.90
7686;DHT22;3885;51.474;-2.576;2023-02-17T13:52:14;12.40;99.90
7686;DHT22;3885;51.474;-2.576;2023-02-17T13:54:50;12.40;99.90
7686;DHT22;3885;51.474;-2.576;2023-02-17T13:57:25;12.40;99.90
7686;DHT22;3885;51.474;-2.576;2023-02-17T14:02:31;12.30;99.90
7686;DHT22;3885;51.474;-2.576;2023-02-17T14:04:59;12.40;99.90
7686;DHT22;3885;51.474;-2.576;2023-02-17T14:07:26;12.30;99.90
7686;DHT22;3885;51.474;-2.576;2023-02-17T14:09:53;12.30;99.90
7686;DHT22;3885;51.474;-2.576;2023-02-17T14:12:22;12.40;99.90
7686;DHT22;3885;51.474;-2.576;2023-02-17T14:14:50;12.40;99.90
7686;DHT22;3885;51.474;-2.576;2023-02-17T14:17:29;12.40;99.90
7686;DHT22;3885;51.474;-2.576;2023-02-17T14:19:57;12.50;99.90
7686;DHT22;3885;51.474;-2.576;2023-02-17T14:24:58;12.40;99.90
7686;DHT22;3885;51.474;-2.576;2023-02-17T14:27:25;12.40;99.90
7686;DHT22;3885;51.474;-2.576;2023-02-17T14:29:52;12.40;99.90
7686;DHT22;3885;51.474;-2.576;2023-02-17T14:32:28;12.30;99.90
7686;DHT22;3885;51.474;-2.576;2023-02-17T14:37:32;12.40;99.90
7686;DHT22;3885;51.474;-2.576;2023-02-17T14:40:01;12.40;99.90
7686;DHT22;3885;51.474;-2.576;2023-02-17T14:42:28;12.40;99.90
7686;DHT22;3885;51.474;-2.576;2023-02-17T14:44:55;12.40;99.90
7686;DHT22;3885;51.474;-2.576;2023-02-17T14:47:22;12.40;99.90
7686;DHT22;3885;51.474;-2.576;2023-02-17T14:49:51;12.40;99.90
7686;DHT22;3885;51.474;-2.576;2023-02-17T14:54:47;12.50;99.90
7686;DHT22;3885;51.474;-2.576;2023-02-17T14:57:15;12.40;99.90
7686;DHT22;3885;51.474;-2.576;2023-02-17T14:59:43;12.40;99.90
7686;DHT22;3885;51.474;-2.576;2023-02-17T15:02:13;12.40;99.90
7686;DHT22;3885;51.474;-2.576;2023-02-17T15:04:41;12.40;99.90
7686;DHT22;3885;51.474;-2.576;2023-02-17T15:07:11;12.40;99.90
7686;DHT22;3885;51.474;-2.576;2023-02-17T15:09:39;12.30;99.90
7686;DHT22;3885;51.474;-2.576;2023-02-17T15:12:12;12.30;99.90
7686;DHT22;3885;51.474;-2.576;2023-02-17T15:14:40;12.40;99.90
7686;DHT22;3885;51.474;-2.576;2023-02-17T15:17:07;12.40;99.90
7686;DHT22;3885;51.474;-2.576;2023-02-17T15:19:34;12.30;99.90
7686;DHT22;3885;51.474;-2.576;2023-02-17T15:22:01;12.30;99.90
7686;DHT22;3885;51.474;-2.576;2023-02-17T15:24:32;12.30;99.90
7686;DHT22;3885;51.474;-2.576;2023-02-17T15:26:59;12.30;99.90
7686;DHT22;3885;51.474;-2.576;2023-02-17T15:29:26;12.30;99.90
7686;DHT22;3885;51.474;-2.576;2023-02-17T15:31:54;12.20;99.90
7686;DHT22;3885;51.474;-2.576;2023-02-17T15:34:24;12.30;99.90
7686;DHT22;3885;51.474;-2.576;2023-02-17T15:36:53;12.20;99.90
7686;DHT22;3885;51.474;-2.576;2023-02-17T15:39:20;12.20;99.90
7686;DHT22;3885;51.474;-2.576;2023-02-17T15:41:49;12.20;99.90
7686;DHT22;3885;51.474;-2.576;2023-02-17T15:44:19;12.20;99.90
7686;DHT22;3885;51.474;-2.576;2023-02-17T15:49:14;12.10;99.90
7686;DHT22;3885;51.474;-2.576;2023-02-17T15:51:41;12.10;99.90
7686;DHT22;3885;51.474;-2.576;2023-02-17T15:54:08;12.20;99.90
7686;DHT22;3885;51.474;-2.576;2023-02-17T15:56:38;12.20;99.90
7686;DHT22;3885;51.474;-2.576;2023-02-17T15:59:14;12.20;99.90
7686;DHT22;3885;51.474;-2.576;2023-02-17T16:04:10;12.10;99.90
7686;DHT22;3885;51.474;-2.576;2023-02-17T16:06:37;12.10;99.90
7686;DHT22;3885;51.474;-2.576;2023-02-17T16:09:04;12.10;99.90
7686;DHT22;3885;51.474;-2.576;2023-02-17T16:11:32;12.00;99.90
7686;DHT22;3885;51.474;-2.576;2023-02-17T16:14:00;12.00;99.90
7686;DHT22;3885;51.474;-2.576;2023-02-17T16:16:31;12.00;99.90
7686;DHT22;3885;51.474;-2.576;2023-02-17T16:18:59;12.00;99.90
7686;DHT22;3885;51.474;-2.576;2023-02-17T16:23:53;12.00;99.90
7686;DHT22;3885;51.474;-2.576;2023-02-17T16:26:26;12.00;99.90
7686;DHT22;3885;51.474;-2.576;2023-02-17T16:28:53;12.00;99.90
7686;DHT22;3885;51.474;-2.576;2023-02-17T16:33:49;11.90;99.90
7686;DHT22;3885;51.474;-2.576;2023-02-17T16:36:18;11.90;99.90
7686;DHT22;3885;51.474;-2.576;2023-02-17T16:41:17;11.80;99.90
7686;DHT22;3885;51.474;-2.576;2023-02-17T16:43:44;11.80;99.90
7686;DHT22;3885;51.474;-2.576;2023-02-17T16:46:19;11.70;99.90
7686;DHT22;3885;51.474;-2.576;2023-02-17T16:48:49;11.80;99.90
7686;DHT22;3885;51.474;-2.576;2023-02-17T16:51:16;11.80;99.90
7686;DHT22;3885;51.474;-2.576;2023-02-17T16:53:43;11.70;99.90
7686;DHT22;3885;51.474;-2.576;2023-02-17T16:58:42;11.70;99.90
7686;DHT22;3885;51.474;-2.576;2023-02-17T17:01:10;11.70;99.90
7686;DHT22;3885;51.474;-2.576;2023-02-17T17:03:38;11.60;99.90
7686;DHT22;3885;51.474;-2.576;2023-02-17T17:06:15;11.60;99.90
7686;DHT22;3885;51.474;-2.576;2023-02-17T17:08:44;11.60;99.90
7686;DHT22;3885;51.474;-2.576;2023-02-17T17:11:13;11.60;99.90
7686;DHT22;3885;51.474;-2.576;2023-02-17T17:13:40;11.60;99.90
7686;DHT22;3885;51.474;-2.576;2023-02-17T17:16:11;11.60;99.90
7686;DHT22;3885;51.474;-2.576;2023-02-17T17:18:38;11.50;99.90
7686;DHT22;3885;51.474;-2.576;2023-02-17T17:21:05;11.60;99.90
7686;DHT22;3885;51.474;-2.576;2023-02-17T17:23:33;11.50;99.90
7686;DHT22;3885;51.474;-2.576;2023-02-17T17:26:00;11.50;99.90
7686;DHT22;3885;51.474;-2.576;2023-02-17T17:30:56;11.40;99.90
7686;DHT22;3885;51.474;-2.576;2023-02-17T17:33:22;11.50;99.90
7686;DHT22;3885;51.474;-2.576;2023-02-17T17:35:51;11.50;99.90
7686;DHT22;3885;51.474;-2.576;2023-02-17T17:38:19;11.50;99.90
7686;DHT22;3885;51.474;-2.576;2023-02-17T17:40:47;11.50;99.90
7686;DHT22;3885;51.474;-2.576;2023-02-17T17:43:14;11.50;99.90
7686;DHT22;3885;51.474;-2.576;2023-02-17T17:45:41;11.50;99.90
7686;DHT22;3885;51.474;-2.576;2023-02-17T17:48:11;11.50;99.90
7686;DHT22;3885;51.474;-2.576;2023-02-17T17:50:39;11.40;99.90
7686;DHT22;3885;51.474;-2.576;2023-02-17T17:53:06;11.40;99.90
7686;DHT22;3885;51.474;-2.576;2023-02-17T17:55:34;11.40;99.90
7686;DHT22;3885;51.474;-2.576;2023-02-17T17:58:02;11.40;99.90
7686;DHT22;3885;51.474;-2.576;2023-02-17T18:02:56;11.40;99.90
7686;DHT22;3885;51.474;-2.576;2023-02-17T18:05:23;11.40;99.90
7686;DHT22;3885;51.474;-2.576;2023-02-17T18:10:18;11.40;99.90
7686;DHT22;3885;51.474;-2.576;2023-02-17T18:12:45;11.40;99.90
7686;DHT22;3885;51.474;-2.576;2023-02-17T18:15:15;11.40;99.90
7686;DHT22;3885;51.474;-2.576;2023-02-17T18:17:42;11.30;99.90
7686;DHT22;3885;51.474;-2.576;2023-02-17T18:22:39;11.40;99.90
7686;DHT22;3885;51.474;-2.576;2023-02-17T18:25:07;11.40;99.90
7686;DHT22;3885;51.474;-2.576;2023-02-17T18:27:38;11.40;99.90
7686;DHT22;3885;51.474;-2.576;2023-02-17T18:30:07;11.40;99.90
7686;DHT22;3885;51.474;-2.576;2023-02-17T18:32:37;11.40;99.90
7686;DHT22;3885;51.474;-2.576;2023-02-17T18:35:04;11.50;99.90
7686;DHT22;3885;51.474;-2.576;2023-02-17T18:37:32;11.40;99.90
7686;DHT22;3885;51.474;-2.576;2023-02-17T18:39:59;11.40;99.90
7686;DHT22;3885;51.474;-2.576;2023-02-17T18:42:26;11.50;99.90
7686;DHT22;3885;51.474;-2.576;2023-02-17T18:44:53;11.50;99.90